createdAt,value
2022-10-11T00:01:56.941Z,5.70
2022-10-11T00:04:31.394Z,5.10
2022-10-11T00:07:03.745Z,5.50
2022-10-11T00:09:35.900Z,5.70
2022-10-11T00:12:08.641Z,5.60
2022-10-11T00:14:40.763Z,5.60
2022-10-11T00:17:12.911Z,5.20
2022-10-11T00:19:47.235Z,6.00
2022-10-11T00:22:19.511Z,5.90
2022-10-11T00:24:52.968Z,6.00
2022-10-11T00:27:24.958Z,5.70
2022-10-11T00:29:57.109Z,4.90
2022-10-11T00:32:29.325Z,5.30
2022-10-11T00:35:04.820Z,5.60
2022-10-11T00:37:40.393Z,5.60
2022-10-11T00:40:17.784Z,5.50
2022-10-11T00:42:50.032Z,5.80
2022-10-11T00:45:56.788Z,5.30
2022-10-11T00:48:32.981Z,5.20
2022-10-11T00:51:14.386Z,5.60
2022-10-11T00:53:52.265Z,5.70
2022-10-11T00:56:29.126Z,5.60
2022-10-11T00:59:03.514Z,5.40
2022-10-11T01:01:35.714Z,5.50
2022-10-11T01:04:08.681Z,5.10
2022-10-11T01:06:44.763Z,5.00
2022-10-11T01:09:17.712Z,6.40
2022-10-11T01:11:51.801Z,5.40
2022-10-11T01:14:48.140Z,5.50
2022-10-11T01:17:29.602Z,5.70
2022-10-11T01:20:23.499Z,4.90
2022-10-11T01:23:25.642Z,5.10
2022-10-11T01:26:15.089Z,5.20
2022-10-11T01:28:53.319Z,5.40
2022-10-11T01:31:30.010Z,5.70
2022-10-11T01:34:06.750Z,4.90
2022-10-11T01:36:46.362Z,5.10
2022-10-11T01:39:25.250Z,5.50
2022-10-11T01:42:01.523Z,5.40
2022-10-11T01:44:35.478Z,5.60
2022-10-11T01:47:07.613Z,5.50
2022-10-11T01:52:11.603Z,5.80
2022-10-11T01:55:09.107Z,5.90
2022-10-11T01:57:55.033Z,5.80
2022-10-11T02:00:32.837Z,6.00
2022-10-11T02:03:14.236Z,5.40
2022-10-11T02:05:53.095Z,5.60
2022-10-11T02:08:33.429Z,5.90
2022-10-11T02:11:14.839Z,5.30
2022-10-11T02:13:54.411Z,6.80
2022-10-11T02:16:32.634Z,5.60
2022-10-11T02:19:07.801Z,6.70
2022-10-11T02:21:43.514Z,6.10
2022-10-11T02:24:23.206Z,6.30
2022-10-11T02:26:58.020Z,5.70
2022-10-11T02:29:33.781Z,5.70
2022-10-11T02:32:06.277Z,6.20
2022-10-11T02:34:42.226Z,6.20
2022-10-11T02:37:22.835Z,6.80
2022-10-11T02:39:58.504Z,6.40
2022-10-11T02:42:37.216Z,6.00
2022-10-11T02:45:16.049Z,6.30
2022-10-11T02:47:49.298Z,5.80
2022-10-11T02:50:22.909Z,6.60
2022-10-11T02:52:54.913Z,7.10
2022-10-11T02:57:57.625Z,5.60
2022-10-11T03:00:29.897Z,7.20
2022-10-11T03:03:01.759Z,6.90
2022-10-11T03:05:40.358Z,6.60
2022-10-11T03:08:14.770Z,5.90
2022-10-11T03:10:47.098Z,6.80
2022-10-11T03:13:19.062Z,6.70
2022-10-11T03:16:02.415Z,8.30
2022-10-11T03:18:35.354Z,8.00
2022-10-11T03:21:07.303Z,8.30
2022-10-11T03:26:09.900Z,8.60
2022-10-11T03:28:42.159Z,9.70
2022-10-11T03:33:44.453Z,9.20
2022-10-11T03:36:17.029Z,8.90
2022-10-11T03:38:49.067Z,9.10
2022-10-11T03:43:51.609Z,8.10
2022-10-11T03:46:23.629Z,8.10
2022-10-11T03:48:55.551Z,8.10
2022-10-11T03:51:28.166Z,7.50
2022-10-11T03:54:00.686Z,7.80
2022-10-11T03:59:03.298Z,7.30
2022-10-11T04:01:38.171Z,8.20
2022-10-11T04:04:10.242Z,8.10
2022-10-11T04:09:12.911Z,7.70
2022-10-11T04:11:44.888Z,8.20
2022-10-11T04:16:49.165Z,7.10
2022-10-11T04:21:52.267Z,7.80
2022-10-11T04:24:24.205Z,8.00
2022-10-11T04:26:56.094Z,8.10
2022-10-11T04:29:32.288Z,7.80
2022-10-11T04:32:04.749Z,7.20
2022-10-11T04:37:07.488Z,6.80
2022-10-11T04:42:10.442Z,7.40
2022-10-11T04:44:42.405Z,8.20
2022-10-11T04:47:15.511Z,7.70
2022-10-11T04:49:47.427Z,8.10
2022-10-11T04:52:23.343Z,7.50
2022-10-11T04:54:57.308Z,7.90
2022-10-11T04:57:29.324Z,7.80
2022-10-11T05:00:01.366Z,8.20
2022-10-11T05:02:33.545Z,9.60
2022-10-11T05:07:37.274Z,8.80
2022-10-11T05:10:11.374Z,9.60
2022-10-11T05:12:43.362Z,9.30
2022-10-11T05:15:15.305Z,13.80
2022-10-11T05:17:47.265Z,12.40
2022-10-11T05:20:19.521Z,10.40
2022-10-11T05:22:51.485Z,10.30
2022-10-11T05:25:23.374Z,12.00
2022-10-11T05:27:55.513Z,10.50
2022-10-11T05:30:27.676Z,10.10
2022-10-11T05:35:30.108Z,10.70
2022-10-11T05:38:01.966Z,12.00
2022-10-11T05:40:34.036Z,12.10
2022-10-11T05:45:38.841Z,10.20
2022-10-11T05:48:11.228Z,8.70
2022-10-11T05:50:43.408Z,8.00
2022-10-11T05:53:15.494Z,8.40
2022-10-11T05:55:47.369Z,8.90
2022-10-11T06:00:50.881Z,7.80
2022-10-11T06:03:22.797Z,7.30
2022-10-11T06:08:29.702Z,5.90
2022-10-11T06:11:12.049Z,7.20
2022-10-11T06:13:44.768Z,8.20
2022-10-11T06:16:17.175Z,7.80
2022-10-11T06:18:49.340Z,8.00
2022-10-11T06:23:58.366Z,7.40
2022-10-11T06:26:33.213Z,6.60
2022-10-11T06:29:05.459Z,5.90
2022-10-11T06:31:38.305Z,7.20
2022-10-11T06:36:40.854Z,7.50
2022-10-11T06:41:43.768Z,6.00
2022-10-11T06:44:16.774Z,6.20
2022-10-11T06:46:49.004Z,6.50
2022-10-11T06:51:55.846Z,6.70
2022-10-11T06:54:28.211Z,5.70
2022-10-11T06:57:01.157Z,6.60
2022-10-11T06:59:33.611Z,7.20
2022-10-11T07:02:05.896Z,6.90
2022-10-11T07:04:37.981Z,6.30
2022-10-11T07:07:10.003Z,7.30
2022-10-11T07:09:41.967Z,6.70
2022-10-11T07:14:44.686Z,7.60
2022-10-11T07:17:16.929Z,7.20
2022-10-11T07:19:49.661Z,7.10
2022-10-11T07:22:21.925Z,7.90
2022-10-11T07:24:54.062Z,6.70
2022-10-11T07:27:26.623Z,7.60
2022-10-11T07:29:58.860Z,6.70
2022-10-11T07:32:31.222Z,6.70
2022-10-11T07:37:34.248Z,6.70
2022-10-11T07:40:10.853Z,7.40
2022-10-11T07:42:42.904Z,7.30
2022-10-11T07:45:15.368Z,6.80
2022-10-11T07:47:47.628Z,6.80
2022-10-11T07:52:50.306Z,6.50
2022-10-11T07:55:22.348Z,6.90
2022-10-11T08:00:25.454Z,6.80
2022-10-11T08:02:57.606Z,7.20
2022-10-11T08:05:29.892Z,6.50
2022-10-11T08:08:01.832Z,7.50
2022-10-11T08:13:10.283Z,6.60
2022-10-11T08:15:42.623Z,6.90
2022-10-11T08:18:14.814Z,6.60
2022-10-11T08:20:47.366Z,5.80
2022-10-11T08:23:20.164Z,5.20
2022-10-11T08:25:57.486Z,5.30
2022-10-11T08:28:37.124Z,6.20
2022-10-11T08:31:12.840Z,5.60
2022-10-11T08:33:45.093Z,5.30
2022-10-11T08:36:17.434Z,5.50
2022-10-11T08:38:49.604Z,5.60
2022-10-11T08:41:39.019Z,5.90
2022-10-11T08:44:24.037Z,4.00
2022-10-11T08:47:04.069Z,4.00
2022-10-11T08:49:36.872Z,4.00
2022-10-11T08:52:20.192Z,4.40
2022-10-11T08:54:56.123Z,3.10
2022-10-11T08:57:31.512Z,3.40
2022-10-11T09:00:06.897Z,3.20
2022-10-11T09:03:07.537Z,3.20
2022-10-11T09:05:52.385Z,3.40
2022-10-11T09:08:34.483Z,3.40
2022-10-11T09:14:08.466Z,3.60
2022-10-11T09:16:54.864Z,4.50
2022-10-11T09:19:44.523Z,3.40
2022-10-11T09:22:28.116Z,4.20
2022-10-11T09:25:12.886Z,2.30
2022-10-11T09:28:02.349Z,3.70
2022-10-11T09:30:37.181Z,2.70
2022-10-11T09:33:18.888Z,2.70
2022-10-11T09:35:53.060Z,2.60
2022-10-11T09:38:39.730Z,2.40
2022-10-11T09:41:19.588Z,2.70
2022-10-11T09:43:53.737Z,2.20
2022-10-11T09:46:32.169Z,2.20
2022-10-11T09:49:08.875Z,2.40
2022-10-11T09:51:42.284Z,2.80
2022-10-11T09:54:14.459Z,2.20
2022-10-11T09:56:48.043Z,2.70
2022-10-11T09:59:29.230Z,1.90
2022-10-11T10:02:21.884Z,2.50
2022-10-11T10:05:03.135Z,2.30
2022-10-11T10:07:36.900Z,3.70
2022-10-11T10:10:32.201Z,2.50
2022-10-11T10:13:07.279Z,2.20
2022-10-11T10:15:46.190Z,2.40
2022-10-11T10:18:25.130Z,1.90
2022-10-11T10:21:00.505Z,2.30
2022-10-11T10:23:36.555Z,2.80
2022-10-11T10:26:20.763Z,2.60
2022-10-11T10:29:06.078Z,2.20
2022-10-11T10:32:01.974Z,1.70
2022-10-11T10:34:37.666Z,1.70
2022-10-11T10:37:19.610Z,1.70
2022-10-11T10:39:56.479Z,2.80
2022-10-11T10:42:29.109Z,1.90
2022-10-11T10:45:01.559Z,2.10
2022-10-11T10:47:52.998Z,1.90
2022-10-11T10:50:32.542Z,1.70
2022-10-11T10:53:14.058Z,1.80
2022-10-11T10:55:52.720Z,1.90
2022-10-11T10:58:42.343Z,1.90
2022-10-11T11:01:21.663Z,1.70
2022-10-11T11:04:01.325Z,1.50
2022-10-11T11:06:39.651Z,1.80
2022-10-11T11:09:29.166Z,1.50
2022-10-11T11:12:13.166Z,1.30
2022-10-11T11:14:55.732Z,1.90
2022-10-11T11:17:39.592Z,1.70
2022-10-11T11:20:25.902Z,1.80
2022-10-11T11:23:04.459Z,1.90
2022-10-11T11:25:48.523Z,1.80
2022-10-11T11:28:34.559Z,2.10
2022-10-11T11:31:16.920Z,1.70
2022-10-11T11:34:00.867Z,3.30
2022-10-11T11:36:40.075Z,2.50
2022-10-11T11:39:18.134Z,1.70
2022-10-11T11:41:56.589Z,1.80
2022-10-11T11:44:34.028Z,1.80
2022-10-11T11:47:12.209Z,2.20
2022-10-11T11:49:47.357Z,1.70
2022-10-11T11:52:27.930Z,2.10
2022-10-11T11:55:09.507Z,1.90
2022-10-11T11:57:55.752Z,1.60
2022-10-11T12:00:31.597Z,1.70
2022-10-11T12:03:10.719Z,1.20
2022-10-11T12:06:23.560Z,1.50
2022-10-11T12:09:04.071Z,1.30
2022-10-11T12:11:55.751Z,1.50
2022-10-11T12:14:36.875Z,1.30
2022-10-11T12:17:18.521Z,1.70
2022-10-11T12:20:11.333Z,1.20
2022-10-11T12:23:01.431Z,1.90
2022-10-11T12:25:43.491Z,1.50
2022-10-11T12:29:01.147Z,1.60
2022-10-11T12:31:35.473Z,1.40
2022-10-11T12:34:38.448Z,1.50
2022-10-11T12:37:50.965Z,1.50
2022-10-11T12:43:27.108Z,1.80
2022-10-11T12:46:19.343Z,1.30
2022-10-11T12:51:41.120Z,1.60
2022-10-11T12:54:34.633Z,1.60
2022-10-11T12:57:46.155Z,1.40
2022-10-11T13:00:28.307Z,1.20
2022-10-11T13:03:02.377Z,1.20
2022-10-11T13:05:45.331Z,1.50
2022-10-11T13:08:24.994Z,1.70
2022-10-11T13:11:03.372Z,1.80
2022-10-11T13:13:39.761Z,1.30
2022-10-11T13:16:16.142Z,1.60
2022-10-11T13:18:55.293Z,1.50
2022-10-11T13:21:36.211Z,1.50
2022-10-11T13:24:14.708Z,1.10
2022-10-11T13:26:49.286Z,1.40
2022-10-11T13:29:28.660Z,1.50
2022-10-11T13:32:01.827Z,1.70
2022-10-11T13:34:38.972Z,1.20
2022-10-11T13:37:17.359Z,1.50
2022-10-11T13:39:52.247Z,1.60
2022-10-11T13:42:30.580Z,1.40
2022-10-11T13:45:04.706Z,1.10
2022-10-11T13:47:38.010Z,1.90
2022-10-11T13:50:22.770Z,2.40
2022-10-11T13:52:59.483Z,18.70
2022-10-11T13:55:36.295Z,2.10
2022-10-11T14:01:08.085Z,1.80
2022-10-11T14:03:47.795Z,1.50
2022-10-11T14:06:19.955Z,1.60
2022-10-11T14:08:55.180Z,1.60
2022-10-11T14:11:38.696Z,1.60
2022-10-11T14:14:42.430Z,1.70
2022-10-11T14:17:19.917Z,1.80
2022-10-11T14:20:11.545Z,1.60
2022-10-11T14:22:44.273Z,1.20
2022-10-11T14:25:16.992Z,2.10
2022-10-11T14:27:49.807Z,1.40
2022-10-11T14:30:26.643Z,1.70
2022-10-11T14:33:03.052Z,2.50
2022-10-11T14:35:39.068Z,1.30
2022-10-11T14:38:13.757Z,1.80
2022-10-11T14:40:45.989Z,9.50
2022-10-11T14:43:18.093Z,31.40
2022-10-11T14:45:51.837Z,11.20
2022-10-11T14:48:50.286Z,15.50
2022-10-11T14:51:22.264Z,15.00
2022-10-11T14:53:54.870Z,13.40
2022-10-11T14:56:26.999Z,8.90
2022-10-11T14:58:59.152Z,3.10
2022-10-11T15:01:31.388Z,2.60
2022-10-11T15:04:04.668Z,3.50
2022-10-11T15:06:41.709Z,2.40
2022-10-11T15:09:13.942Z,1.90
2022-10-11T15:11:46.124Z,8.40
2022-10-11T15:14:18.694Z,11.40
2022-10-11T15:16:51.074Z,9.80
2022-10-11T15:21:54.395Z,5.00
2022-10-11T15:24:28.082Z,7.90
2022-10-11T15:27:00.033Z,8.00
2022-10-11T15:32:02.664Z,26.50
2022-10-11T15:37:07.930Z,23.00
2022-10-11T15:39:40.073Z,19.90
2022-10-11T15:44:43.174Z,13.20
2022-10-11T15:47:15.691Z,9.60
2022-10-11T15:49:47.691Z,9.20
2022-10-11T15:54:50.323Z,5.40
2022-10-11T15:59:52.546Z,10.70
2022-10-11T16:02:25.677Z,10.10
2022-10-11T16:04:57.638Z,10.90
2022-10-11T16:07:29.837Z,6.50
2022-10-11T16:10:01.965Z,3.40
2022-10-11T16:12:34.014Z,3.50
2022-10-11T16:15:06.941Z,3.70
2022-10-11T16:17:39.312Z,7.80
2022-10-11T16:20:11.979Z,6.40
2022-10-11T16:22:44.619Z,10.50
2022-10-11T16:25:16.805Z,12.30
2022-10-11T16:27:48.923Z,15.30
2022-10-11T16:30:21.448Z,19.30
2022-10-11T16:32:53.597Z,10.30
2022-10-11T16:37:59.044Z,4.10
2022-10-11T16:40:31.161Z,5.10
2022-10-11T16:43:07.418Z,5.70
2022-10-11T16:45:40.288Z,9.00
2022-10-11T16:48:12.233Z,7.70
2022-10-11T16:53:15.645Z,3.40
2022-10-11T16:55:47.689Z,2.00
2022-10-11T16:58:19.634Z,1.60
2022-10-11T17:00:51.729Z,1.20
2022-10-11T17:05:54.125Z,1.60
2022-10-11T17:08:26.373Z,1.80
2022-10-11T17:10:59.107Z,1.50
2022-10-11T17:13:31.166Z,1.40
2022-10-11T17:16:03.551Z,1.50
2022-10-11T17:18:35.873Z,1.40
2022-10-11T17:21:12.012Z,1.70
2022-10-11T17:23:44.213Z,1.60
2022-10-11T17:26:19.108Z,1.80
2022-10-11T17:28:51.804Z,1.50
2022-10-11T17:31:24.888Z,1.90
2022-10-11T17:33:58.763Z,9.10
2022-10-11T17:36:34.802Z,4.10
2022-10-11T17:39:09.396Z,2.30
2022-10-11T17:41:42.231Z,1.80
2022-10-11T17:44:17.463Z,1.70
2022-10-11T17:46:51.645Z,1.80
2022-10-11T17:49:24.350Z,1.60
2022-10-11T17:51:56.743Z,1.90
2022-10-11T17:54:29.610Z,2.80
2022-10-11T17:57:02.990Z,1.70
2022-10-11T17:59:37.842Z,4.60
2022-10-11T18:02:10.364Z,4.50
2022-10-11T18:04:43.059Z,4.30
2022-10-11T18:07:17.603Z,3.20
2022-10-11T18:09:51.031Z,3.60
2022-10-11T18:12:23.863Z,7.80
2022-10-11T18:15:02.390Z,14.40
2022-10-11T18:17:35.089Z,11.20
2022-10-11T18:20:11.955Z,11.00
2022-10-11T18:22:44.255Z,5.70
2022-10-11T18:25:16.881Z,3.60
2022-10-11T18:27:49.877Z,2.30
2022-10-11T18:30:22.346Z,2.90
2022-10-11T18:32:57.855Z,2.60
2022-10-11T18:38:01.147Z,3.40
2022-10-11T18:40:33.993Z,2.30
2022-10-11T18:43:06.438Z,2.20
2022-10-11T18:45:39.399Z,3.10
2022-10-11T18:48:11.575Z,3.20
2022-10-11T18:53:15.677Z,5.60
2022-10-11T18:55:47.736Z,3.10
2022-10-11T19:00:51.518Z,3.50
2022-10-11T19:03:24.035Z,3.60
2022-10-11T19:05:57.327Z,3.60
2022-10-11T19:08:30.216Z,3.20
2022-10-11T19:11:10.645Z,5.20
2022-10-11T19:13:44.415Z,6.70
2022-10-11T19:16:18.527Z,4.60
2022-10-11T19:18:52.608Z,7.50
2022-10-11T19:21:25.880Z,7.20
2022-10-11T19:23:58.613Z,7.00
2022-10-11T19:26:33.782Z,7.00
2022-10-11T19:29:09.059Z,7.30
2022-10-11T19:31:44.610Z,7.30
2022-10-11T19:34:17.595Z,6.80
2022-10-11T19:36:52.951Z,8.10
2022-10-11T19:39:26.104Z,7.60
2022-10-11T19:41:58.183Z,6.60
2022-10-11T19:44:32.517Z,7.00
2022-10-11T19:47:08.192Z,8.10
2022-10-11T19:49:40.104Z,7.60
2022-10-11T19:52:13.391Z,6.80
2022-10-11T19:54:45.785Z,10.50
2022-10-11T19:59:48.310Z,11.10
2022-10-11T20:02:20.716Z,11.20
2022-10-11T20:04:53.265Z,11.90
2022-10-11T20:07:25.518Z,10.60
2022-10-11T20:09:57.537Z,13.60
2022-10-11T20:12:29.807Z,16.00
2022-10-11T20:15:01.996Z,14.90
2022-10-11T20:20:19.713Z,11.90
2022-10-11T20:22:53.553Z,13.30
2022-10-11T20:25:25.885Z,12.30
2022-10-11T20:30:28.315Z,9.90
2022-10-11T20:33:00.205Z,11.20
2022-10-11T20:35:32.468Z,14.00
2022-10-11T20:40:35.165Z,14.90
2022-10-11T20:43:07.349Z,12.20
2022-10-11T20:48:09.872Z,14.20
2022-10-11T20:50:46.529Z,14.60
2022-10-11T20:53:18.437Z,16.10
2022-10-11T20:55:51.086Z,14.10
2022-10-11T20:58:24.220Z,14.20
2022-10-11T21:00:56.288Z,16.20
2022-10-11T21:03:28.261Z,17.00
2022-10-11T21:06:03.586Z,16.10
2022-10-11T21:08:36.922Z,17.60
2022-10-11T21:11:10.813Z,16.70
2022-10-11T21:13:42.942Z,16.80
2022-10-11T21:16:16.889Z,19.20
2022-10-11T21:18:53.171Z,19.80
2022-10-11T21:21:25.993Z,20.00
2022-10-11T21:23:59.129Z,16.10
2022-10-11T21:26:32.066Z,18.50
2022-10-11T21:29:04.801Z,20.00
2022-10-11T21:31:36.808Z,21.60
2022-10-11T21:34:09.103Z,23.00
2022-10-11T21:36:41.198Z,19.90
2022-10-11T21:39:13.200Z,18.80
2022-10-11T21:41:46.567Z,19.00
2022-10-11T21:44:19.133Z,16.60
2022-10-11T21:47:07.633Z,16.40
2022-10-11T21:49:39.971Z,15.40
2022-10-11T21:52:12.316Z,14.30
2022-10-11T21:54:44.294Z,13.70
2022-10-11T21:57:16.253Z,13.90
2022-10-11T21:59:48.323Z,14.60
2022-10-11T22:02:20.265Z,15.40
2022-10-11T22:04:52.273Z,15.60
2022-10-11T22:07:24.477Z,14.60
2022-10-11T22:12:26.984Z,14.00
2022-10-11T22:14:59.000Z,16.80
2022-10-11T22:17:30.998Z,15.90
2022-10-11T22:20:03.206Z,15.10
2022-10-11T22:22:35.604Z,15.20
2022-10-11T22:25:09.504Z,17.50
2022-10-11T22:27:41.461Z,16.20
2022-10-11T22:30:14.160Z,16.60
2022-10-11T22:32:46.087Z,15.50
2022-10-11T22:35:18.255Z,14.90
2022-10-11T22:37:51.083Z,17.90
2022-10-11T22:40:23.117Z,15.20
2022-10-11T22:42:54.950Z,15.50
2022-10-11T22:45:26.868Z,16.10
2022-10-11T22:47:58.947Z,16.20
2022-10-11T22:50:30.939Z,16.10
2022-10-11T22:55:33.828Z,18.00
2022-10-11T22:58:06.724Z,16.80
2022-10-11T23:00:38.832Z,16.10
2022-10-11T23:05:44.352Z,14.80
2022-10-11T23:10:46.735Z,16.80
2022-10-11T23:13:19.067Z,17.50
2022-10-11T23:15:50.986Z,16.20
2022-10-11T23:18:23.213Z,16.90
2022-10-11T23:23:25.677Z,17.30
2022-10-11T23:26:05.194Z,17.60
2022-10-11T23:28:37.458Z,17.20
2022-10-11T23:31:14.521Z,16.70
2022-10-11T23:33:48.150Z,17.40
2022-10-11T23:36:22.635Z,15.80
2022-10-11T23:38:56.273Z,14.60
2022-10-11T23:41:30.628Z,14.80
2022-10-11T23:44:02.717Z,15.10
2022-10-11T23:46:35.051Z,14.70
2022-10-11T23:49:07.289Z,15.50
2022-10-11T23:51:39.212Z,16.30
2022-10-11T23:54:11.901Z,16.10
2022-10-11T23:56:44.030Z,16.20
